Time;durP1;ratioP1;P1;durP2;ratioP2;P2;SDS_P1;SDS_P2;PMS_P1;PMS_P2;Temp;Humidity;BMP_temperature;BMP_pressure;BME280_temperature;BME280_humidity;BME280_pressure;Samples;Min_cycle;Max_cycle;Signal;HPM_P1;HPM_P2
2023/06/24 00:02:13;;;;;;;22.03;15.27;;;15.50;99.90;;;;;;5015099;28;20556;-56
2023/06/24 00:04:39;;;;;;;25.70;15.20;;;15.40;99.90;;;;;;5014772;28;20776;-58
2023/06/24 00:07:05;;;;;;;23.67;16.07;;;15.50;99.90;;;;;;5014761;28;20182;-55
2023/06/24 00:09:31;;;;;;;18.63;14.87;;;15.40;99.90;;;;;;5014703;28;20274;-56
2023/06/24 00:11:58;;;;;;;28.50;15.70;;;15.40;99.90;;;;;;5014486;28;21079;-55
2023/06/24 00:14:27;;;;;;;20.23;15.70;;;15.40;99.90;;;;;;5014731;28;20264;-55
2023/06/24 00:16:54;;;;;;;23.87;16.17;;;15.40;99.90;;;;;;5014380;28;20920;-56
2023/06/24 00:19:21;;;;;;;25.40;15.77;;;15.30;99.90;;;;;;5014762;28;20416;-56
2023/06/24 00:21:51;;;;;;;21.23;15.47;;;15.30;99.90;;;;;;5014046;28;20528;-57
2023/06/24 00:24:19;;;;;;;20.10;15.63;;;15.30;99.90;;;;;;5014186;28;20429;-58
2023/06/24 00:26:46;;;;;;;21.77;15.20;;;15.30;99.90;;;;;;5013705;28;20408;-56
2023/06/24 00:29:11;;;;;;;20.10;15.97;;;15.30;99.90;;;;;;5014632;28;20419;-55
2023/06/24 00:31:37;;;;;;;25.13;16.87;;;15.20;99.90;;;;;;5014528;28;20530;-54
2023/06/24 00:34:02;;;;;;;26.80;17.43;;;15.20;99.90;;;;;;5014011;28;20194;-56
2023/06/24 00:36:28;;;;;;;29.20;16.30;;;15.20;99.90;;;;;;5014214;28;20228;-56
2023/06/24 00:38:55;;;;;;;29.00;17.40;;;15.20;99.90;;;;;;5013854;28;20178;-56
2023/06/24 00:41:21;;;;;;;31.47;21.40;;;15.10;99.90;;;;;;5014015;28;20196;-55
2023/06/24 00:43:47;;;;;;;31.63;21.27;;;15.10;99.90;;;;;;5014345;28;20412;-58
2023/06/24 00:46:15;;;;;;;26.70;17.53;;;15.10;99.90;;;;;;5014307;28;20286;-56
2023/06/24 00:48:41;;;;;;;25.10;16.73;;;15.10;99.90;;;;;;5014120;28;20425;-56
2023/06/24 00:51:06;;;;;;;25.93;16.23;;;15.00;99.90;;;;;;5014083;28;20557;-55
2023/06/24 00:53:32;;;;;;;24.67;14.50;;;15.00;99.90;;;;;;5013964;28;20238;-56
2023/06/24 00:56:02;;;;;;;24.10;16.83;;;15.00;99.90;;;;;;5013916;28;20221;-55
2023/06/24 00:58:32;;;;;;;22.50;16.00;;;14.90;99.90;;;;;;5013603;28;20642;-56
2023/06/24 01:00:58;;;;;;;28.40;16.50;;;14.90;99.90;;;;;;5014178;28;20511;-56
2023/06/24 01:03:25;;;;;;;21.30;14.83;;;14.90;99.90;;;;;;5015316;28;20499;-55
2023/06/24 01:05:52;;;;;;;26.80;16.70;;;14.90;99.90;;;;;;5015195;28;20430;-56
2023/06/24 01:08:19;;;;;;;24.03;16.43;;;14.90;99.90;;;;;;5015196;28;20506;-57
2023/06/24 01:10:45;;;;;;;26.17;17.30;;;14.90;99.90;;;;;;5015135;28;20419;-56
2023/06/24 01:13:10;;;;;;;33.20;21.83;;;14.90;99.90;;;;;;5015057;28;20420;-55
2023/06/24 01:15:36;;;;;;;26.50;18.07;;;14.90;99.90;;;;;;5014956;28;20412;-55
2023/06/24 01:18:17;;;;;;;44.03;25.47;;;15.00;99.90;;;;;;5015197;28;20195;-57
2023/06/24 01:21:05;;;;;;;41.03;24.20;;;14.90;99.90;;;;;;5014824;28;20419;-55
2023/06/24 01:23:52;;;;;;;28.60;17.93;;;14.90;99.90;;;;;;5014978;28;20419;-56
2023/06/24 01:26:35;;;;;;;30.07;18.03;;;14.80;99.90;;;;;;5014998;28;20431;-55
2023/06/24 01:29:30;;;;;;;24.70;16.73;;;14.80;99.90;;;;;;5014532;28;20413;-55
2023/06/24 01:32:17;;;;;;;26.50;17.17;;;14.80;99.90;;;;;;5014717;28;20455;-56
2023/06/24 01:34:59;;;;;;;31.10;17.37;;;14.70;99.90;;;;;;5014796;28;20411;-56
2023/06/24 01:37:51;;;;;;;25.70;16.70;;;14.70;99.90;;;;;;5014192;28;20416;-55
2023/06/24 01:40:40;;;;;;;24.67;17.00;;;14.70;99.90;;;;;;5014596;28;20408;-55
2023/06/24 01:43:08;;;;;;;25.87;15.93;;;14.70;99.90;;;;;;5014477;28;20412;-56
2023/06/24 01:45:42;;;;;;;20.97;15.07;;;14.60;99.90;;;;;;5014075;28;20506;-55
2023/06/24 01:48:25;;;;;;;25.70;16.03;;;14.60;99.90;;;;;;5014668;28;20411;-55
2023/06/24 01:51:01;;;;;;;24.70;15.87;;;14.50;99.90;;;;;;5014660;28;20416;-54
2023/06/24 01:53:31;;;;;;;33.13;16.73;;;14.50;99.90;;;;;;5014112;28;20482;-54
2023/06/24 01:56:00;;;;;;;25.83;15.50;;;14.50;99.90;;;;;;5013929;28;20942;-55
2023/06/24 01:58:25;;;;;;;24.50;15.97;;;14.50;99.90;;;;;;5014310;28;20421;-55
2023/06/24 02:00:52;;;;;;;31.03;17.03;;;14.40;99.90;;;;;;5013897;28;20421;-55
2023/06/24 02:03:20;;;;;;;27.93;16.77;;;14.40;99.90;;;;;;5014405;28;20201;-55
2023/06/24 02:05:47;;;;;;;30.23;18.90;;;14.40;99.90;;;;;;5014506;28;20415;-56
2023/06/24 02:08:14;;;;;;;27.00;16.50;;;14.40;99.90;;;;;;5014142;28;20430;-55
2023/06/24 02:10:40;;;;;;;26.77;16.80;;;14.30;99.90;;;;;;5014074;28;20423;-55
2023/06/24 02:13:09;;;;;;;25.07;16.60;;;14.30;99.90;;;;;;5013965;28;20526;-55
2023/06/24 02:15:36;;;;;;;23.13;16.30;;;14.30;99.90;;;;;;5013916;28;20450;-56
2023/06/24 02:18:04;;;;;;;31.93;18.00;;;14.20;99.90;;;;;;5013840;28;20416;-57
2023/06/24 02:20:31;;;;;;;81.90;28.43;;;14.20;99.90;;;;;;5014046;28;20477;-55
2023/06/24 02:22:58;;;;;;;99.43;33.77;;;14.10;99.90;;;;;;5013928;28;20432;-56
2023/06/24 02:25:26;;;;;;;63.60;26.17;;;14.20;99.90;;;;;;5013918;28;20415;-56
2023/06/24 02:27:54;;;;;;;62.30;26.80;;;14.10;99.90;;;;;;5013588;28;20795;-55
2023/06/24 02:30:22;;;;;;;43.20;22.57;;;14.10;99.90;;;;;;5013634;28;20423;-55
2023/06/24 02:32:47;;;;;;;39.53;23.87;;;14.10;99.90;;;;;;5013710;28;20459;-55
2023/06/24 02:35:13;;;;;;;51.57;24.70;;;14.10;99.90;;;;;;5013566;28;20422;-55
2023/06/24 02:37:39;;;;;;;39.07;21.63;;;14.10;99.90;;;;;;5013740;28;20215;-55
2023/06/24 02:40:07;;;;;;;36.00;21.43;;;14.10;99.90;;;;;;5013408;28;20667;-55
2023/06/24 02:42:32;;;;;;;47.17;23.60;;;14.10;99.90;;;;;;5013337;28;20425;-54
2023/06/24 02:44:59;;;;;;;42.53;22.70;;;14.10;99.90;;;;;;5013784;28;20443;-55
2023/06/24 02:47:25;;;;;;;39.53;21.93;;;14.10;99.90;;;;;;5013587;28;20185;-55
2023/06/24 02:49:52;;;;;;;33.27;20.80;;;14.10;99.90;;;;;;5014174;28;20415;-55
2023/06/24 02:52:17;;;;;;;29.73;19.13;;;14.00;99.90;;;;;;5017092;28;20525;-55
2023/06/24 02:54:44;;;;;;;32.10;20.23;;;14.00;99.90;;;;;;5017343;28;20412;-55
2023/06/24 02:57:10;;;;;;;32.20;20.57;;;14.00;99.90;;;;;;5017630;28;20221;-55
2023/06/24 02:59:37;;;;;;;36.53;21.40;;;13.90;99.90;;;;;;5017702;28;20440;-56
2023/06/24 03:02:04;;;;;;;36.67;23.00;;;13.90;99.90;;;;;;5017188;28;20680;-55
2023/06/24 03:04:30;;;;;;;35.33;21.53;;;13.90;99.90;;;;;;5017147;28;20435;-55
2023/06/24 03:06:59;;;;;;;31.07;20.30;;;13.90;99.90;;;;;;5016973;28;20423;-55
2023/06/24 03:09:25;;;;;;;37.80;20.73;;;13.90;99.90;;;;;;5017171;28;20189;-55
2023/06/24 03:11:50;;;;;;;34.90;21.90;;;13.90;99.90;;;;;;5017256;28;20463;-54
2023/06/24 03:14:16;;;;;;;37.13;21.60;;;13.90;99.90;;;;;;5017138;28;20420;-55
2023/06/24 03:16:42;;;;;;;42.73;21.30;;;13.90;99.90;;;;;;5017370;28;20613;-56
2023/06/24 03:19:08;;;;;;;34.93;21.50;;;13.90;99.90;;;;;;5017364;28;20263;-55
2023/06/24 03:21:33;;;;;;;35.50;21.37;;;14.00;99.90;;;;;;5017106;28;20443;-55
2023/06/24 03:23:59;;;;;;;31.87;20.97;;;14.00;99.90;;;;;;5017121;28;20184;-54
2023/06/24 03:26:33;;;;;;;34.53;19.50;;;14.00;99.90;;;;;;5017024;28;20183;-54
2023/06/24 03:28:58;;;;;;;28.53;18.40;;;14.00;99.90;;;;;;5016950;28;20815;-54
2023/06/24 03:31:24;;;;;;;28.70;18.90;;;14.00;99.90;;;;;;5016723;28;20459;-55
2023/06/24 03:33:49;;;;;;;25.97;18.17;;;14.00;99.90;;;;;;5016507;28;20185;-57
2023/06/24 03:36:15;;;;;;;33.20;19.77;;;14.00;99.90;;;;;;5016727;28;20232;-55
2023/06/24 03:38:41;;;;;;;27.47;17.70;;;14.10;99.90;;;;;;5016545;28;20188;-56
2023/06/24 03:41:06;;;;;;;35.40;17.70;;;14.10;99.90;;;;;;5016396;28;20235;-55
2023/06/24 03:43:32;;;;;;;25.00;17.27;;;14.10;99.90;;;;;;5016198;28;20184;-55
2023/06/24 03:45:58;;;;;;;23.23;14.87;;;14.10;99.90;;;;;;5016368;28;20189;-55
2023/06/24 03:48:23;;;;;;;27.50;17.13;;;14.10;99.90;;;;;;5016391;28;20185;-55
2023/06/24 03:50:49;;;;;;;28.10;18.70;;;14.10;99.90;;;;;;5016298;28;20231;-55
2023/06/24 03:53:14;;;;;;;26.43;16.80;;;14.10;99.90;;;;;;5016247;28;20286;-56
2023/06/24 03:55:40;;;;;;;26.77;16.50;;;14.20;99.90;;;;;;5016610;28;20216;-55
2023/06/24 03:58:06;;;;;;;29.10;16.63;;;14.20;99.90;;;;;;5016230;28;20186;-55
2023/06/24 04:00:31;;;;;;;30.57;19.23;;;14.20;99.90;;;;;;5016274;28;20594;-55
2023/06/24 04:03:00;;;;;;;26.13;17.63;;;14.30;99.90;;;;;;5016572;28;20588;-55
2023/06/24 04:05:26;;;;;;;33.27;19.60;;;14.40;99.90;;;;;;5016233;28;20321;-55
2023/06/24 04:07:52;;;;;;;29.00;17.50;;;14.50;99.90;;;;;;5016401;28;20420;-55
2023/06/24 04:10:18;;;;;;;35.40;19.20;;;14.60;99.90;;;;;;5016255;28;20636;-54
2023/06/24 04:12:44;;;;;;;30.43;20.57;;;14.70;99.90;;;;;;5015961;28;20212;-56
2023/06/24 04:15:10;;;;;;;30.93;19.80;;;14.80;99.90;;;;;;5016019;28;20565;-56
2023/06/24 04:17:35;;;;;;;32.13;21.10;;;14.90;99.90;;;;;;5016549;28;20420;-55
2023/06/24 04:20:03;;;;;;;26.60;17.47;;;15.00;99.90;;;;;;5015932;28;20180;-55
2023/06/24 04:22:29;;;;;;;26.60;18.60;;;15.10;99.90;;;;;;5015968;28;20192;-56
2023/06/24 04:24:55;;;;;;;34.13;20.20;;;15.20;99.90;;;;;;5015753;28;20496;-55
2023/06/24 04:27:20;;;;;;;32.60;20.97;;;15.30;99.90;;;;;;5016044;28;20192;-54
2023/06/24 04:29:46;;;;;;;29.63;19.77;;;15.40;99.90;;;;;;5015607;28;20179;-55
2023/06/24 04:32:11;;;;;;;28.67;20.27;;;15.50;99.90;;;;;;5015819;28;20217;-56
2023/06/24 04:34:37;;;;;;;28.07;19.80;;;15.50;99.90;;;;;;5015646;28;20531;-56
2023/06/24 04:37:03;;;;;;;30.67;19.30;;;15.70;99.90;;;;;;5015920;28;20188;-55
2023/06/24 04:39:28;;;;;;;27.03;18.03;;;15.80;99.90;;;;;;5016233;28;20686;-55
2023/06/24 04:41:54;;;;;;;31.80;19.10;;;15.90;99.90;;;;;;5015412;28;20201;-55
2023/06/24 04:44:20;;;;;;;25.77;18.00;;;16.10;99.90;;;;;;5015154;28;20223;-55
2023/06/24 04:46:46;;;;;;;24.00;15.63;;;16.20;99.90;;;;;;5015682;28;20197;-56
2023/06/24 04:49:11;;;;;;;24.27;15.70;;;16.40;99.90;;;;;;5015021;28;20428;-55
2023/06/24 04:51:37;;;;;;;17.93;14.77;;;16.50;99.90;;;;;;5015593;28;20270;-56
2023/06/24 04:54:03;;;;;;;19.20;14.30;;;16.60;99.90;;;;;;5015126;28;20701;-56
2023/06/24 04:56:29;;;;;;;20.00;13.43;;;16.70;99.90;;;;;;5015107;28;20190;-56
2023/06/24 04:58:55;;;;;;;23.23;13.37;;;16.80;99.90;;;;;;5015384;28;20421;-56
2023/06/24 05:01:21;;;;;;;15.77;11.77;;;16.80;99.90;;;;;;5015015;28;20426;-56
2023/06/24 05:03:47;;;;;;;22.90;15.67;;;16.90;99.90;;;;;;5014759;28;20190;-56
2023/06/24 05:06:12;;;;;;;22.83;15.60;;;17.00;99.90;;;;;;5014739;28;20422;-56
2023/06/24 05:08:38;;;;;;;21.80;16.40;;;17.10;99.90;;;;;;5015087;28;20183;-56
2023/06/24 05:11:04;;;;;;;22.17;15.03;;;17.20;99.90;;;;;;5015080;28;20592;-56
2023/06/24 05:13:29;;;;;;;20.03;15.17;;;17.40;99.90;;;;;;5014503;28;20197;-57
2023/06/24 05:15:55;;;;;;;19.87;14.40;;;17.40;90.30;;;;;;5014773;28;20193;-57
2023/06/24 05:18:20;;;;;;;23.70;12.93;;;17.50;78.30;;;;;;5014750;28;20187;-56
2023/06/24 05:20:46;;;;;;;17.80;11.97;;;17.50;8.10;;;;;;5014474;28;20548;-57
2023/06/24 05:23:11;;;;;;;14.60;9.73;;;17.60;1.00;;;;;;5014678;28;20183;-57
2023/06/24 05:25:37;;;;;;;14.73;10.67;;;17.80;1.00;;;;;;5014809;28;20229;-57
2023/06/24 05:28:03;;;;;;;16.33;12.03;;;17.90;1.00;;;;;;5014995;28;20236;-57
2023/06/24 05:30:28;;;;;;;17.63;12.07;;;18.00;1.00;;;;;;5014944;28;20639;-58
2023/06/24 05:32:54;;;;;;;14.20;10.03;;;18.20;1.00;;;;;;5014609;28;20624;-58
2023/06/24 05:35:19;;;;;;;12.37;9.87;;;18.30;99.90;;;;;;5014603;28;20183;-57
2023/06/24 05:37:45;;;;;;;11.80;8.37;;;18.50;99.90;;;;;;5014113;28;20183;-57
2023/06/24 05:40:12;;;;;;;16.63;8.23;;;18.70;99.90;;;;;;5014714;28;20293;-57
2023/06/24 05:42:38;;;;;;;12.43;8.87;;;18.90;1.00;;;;;;5014198;28;20199;-57
2023/06/24 05:45:06;;;;;;;11.37;7.67;;;19.10;1.00;;;;;;5014715;28;20481;-57
2023/06/24 05:47:31;;;;;;;11.40;7.90;;;19.20;1.00;;;;;;5014074;28;20198;-57
2023/06/24 05:49:57;;;;;;;14.50;10.00;;;19.30;99.90;;;;;;5013998;28;20426;-57
2023/06/24 05:52:23;;;;;;;12.03;9.13;;;19.50;4.50;;;;;;5013844;28;20270;-57
2023/06/24 05:54:48;;;;;;;12.87;9.13;;;19.60;1.00;;;;;;5014235;28;20198;-57
2023/06/24 05:57:14;;;;;;;15.60;9.53;;;19.90;99.90;;;;;;5014241;28;20614;-57
2023/06/24 05:59:39;;;;;;;12.97;9.37;;;20.20;15.00;;;;;;5014017;28;20210;-57
2023/06/24 06:02:05;;;;;;;10.80;8.37;;;20.20;1.00;;;;;;5014517;28;20186;-57
2023/06/24 06:04:31;;;;;;;9.87;8.40;;;20.10;1.00;;;;;;5014368;28;20343;-57
2023/06/24 06:06:56;;;;;;;9.17;7.50;;;19.90;1.00;;;;;;5014350;28;20907;-57
2023/06/24 06:09:22;;;;;;;12.03;9.27;;;19.80;1.00;;;;;;5013828;28;20190;-57
2023/06/24 06:11:48;;;;;;;11.70;8.50;;;19.80;25.50;;;;;;5013916;28;20211;-57
2023/06/24 06:14:14;;;;;;;10.13;7.80;;;20.10;31.20;;;;;;5014020;28;20666;-57
2023/06/24 06:16:39;;;;;;;8.30;7.23;;;20.20;1.00;;;;;;5014115;28;20574;-57
2023/06/24 06:19:05;;;;;;;9.20;7.13;;;20.10;1.00;;;;;;5014280;28;20548;-57
2023/06/24 06:21:31;;;;;;;13.10;7.33;;;20.20;1.00;;;;;;5013870;28;20270;-57
2023/06/24 06:23:56;;;;;;;14.40;7.33;;;20.20;1.00;;;;;;5013732;28;20695;-57
2023/06/24 06:26:22;;;;;;;10.30;7.00;;;20.10;1.00;;;;;;5013639;28;20178;-57
2023/06/24 06:28:48;;;;;;;10.03;5.70;;;20.00;1.00;;;;;;5013915;28;20205;-57
2023/06/24 06:31:14;;;;;;;9.27;5.30;;;20.40;1.00;;;;;;5013530;28;20211;-57
2023/06/24 06:33:39;;;;;;;6.23;5.00;;;20.80;1.00;;;;;;5013864;28;20624;-57
2023/06/24 06:36:05;;;;;;;6.83;5.20;;;21.00;1.00;;;;;;5013704;28;20417;-57
2023/06/24 06:38:33;;;;;;;8.97;5.03;;;20.60;1.00;;;;;;5013440;28;20179;-58
2023/06/24 06:40:59;;;;;;;10.70;5.50;;;20.80;1.00;;;;;;5013919;28;20191;-58
2023/06/24 06:43:25;;;;;;;11.13;5.90;;;21.20;1.00;;;;;;5013867;28;20941;-58
2023/06/24 06:45:51;;;;;;;6.80;5.57;;;21.50;1.00;;;;;;5013575;28;20801;-58
2023/06/24 06:48:16;;;;;;;13.00;5.83;;;21.60;1.00;;;;;;5013186;28;20187;-58
2023/06/24 06:50:42;;;;;;;6.50;5.90;;;21.40;1.00;;;;;;5013371;28;20198;-57
2023/06/24 06:53:07;;;;;;;5.90;4.73;;;21.40;1.00;;;;;;5013016;28;20293;-58
2023/06/24 06:55:33;;;;;;;9.17;6.00;;;21.60;1.00;;;;;;5013452;28;20181;-58
2023/06/24 06:57:58;;;;;;;6.60;5.07;;;21.80;1.00;;;;;;5013606;28;20181;-58
2023/06/24 07:00:24;;;;;;;6.80;4.93;;;21.80;1.00;;;;;;5013772;28;20203;-58
2023/06/24 07:02:50;;;;;;;6.70;5.23;;;21.90;1.00;;;;;;5013674;28;20195;-58
2023/06/24 07:05:15;;;;;;;8.07;5.30;;;21.90;1.00;;;;;;5013280;28;20187;-58
2023/06/24 07:07:43;;;;;;;6.80;5.33;;;21.90;1.00;;;;;;5013173;28;20182;-58
2023/06/24 07:10:09;;;;;;;8.47;4.70;;;22.00;1.00;;;;;;5013434;28;20194;-58
2023/06/24 07:12:35;;;;;;;6.70;4.83;;;22.20;1.00;;;;;;5013394;28;20467;-58
2023/06/24 07:15:00;;;;;;;6.50;4.80;;;22.40;1.00;;;;;;5013075;28;20183;-58
2023/06/24 07:17:26;;;;;;;8.00;4.40;;;22.50;1.00;;;;;;5013411;28;20189;-57
2023/06/24 07:19:51;;;;;;;11.10;4.97;;;22.80;1.00;;;;;;5013335;28;20213;-56
2023/06/24 07:22:17;;;;;;;8.23;5.60;;;23.10;1.00;;;;;;5013371;28;20188;-56
2023/06/24 07:24:42;;;;;;;7.07;5.10;;;23.40;1.00;;;;;;5013338;28;20542;-56
2023/06/24 07:27:08;;;;;;;5.87;4.70;;;23.40;1.00;;;;;;5013414;28;20181;-57
2023/06/24 07:29:34;;;;;;;4.80;4.30;;;23.40;1.00;;;;;;5013140;28;20514;-57
2023/06/24 07:31:59;;;;;;;5.60;5.00;;;23.40;1.00;;;;;;5013130;28;20216;-57
2023/06/24 07:34:25;;;;;;;6.40;4.30;;;23.50;1.00;;;;;;5013347;28;20556;-57
2023/06/24 07:36:51;;;;;;;9.10;4.60;;;23.80;1.00;;;;;;5015167;28;20251;-57
2023/06/24 07:39:17;;;;;;;7.20;4.97;;;24.00;1.00;;;;;;5017061;28;20523;-57
2023/06/24 07:41:43;;;;;;;4.60;4.20;;;24.30;1.00;;;;;;5016717;28;20275;-57
2023/06/24 07:44:08;;;;;;;6.77;4.80;;;24.40;1.00;;;;;;5016714;28;20448;-55
2023/06/24 07:46:34;;;;;;;6.37;4.70;;;24.70;1.00;;;;;;5016629;28;20191;-58
2023/06/24 07:49:00;;;;;;;8.40;5.27;;;24.90;1.00;;;;;;5016236;28;20190;-56
2023/06/24 07:51:25;;;;;;;5.60;4.13;;;25.20;1.00;;;;;;5015860;28;20301;-56
2023/06/24 07:53:51;;;;;;;5.27;4.67;;;25.60;1.00;;;;;;5016210;28;20300;-55
2023/06/24 07:56:17;;;;;;;5.77;4.20;;;25.80;1.00;;;;;;5016220;28;20216;-56
2023/06/24 07:58:43;;;;;;;4.83;4.33;;;25.90;1.00;;;;;;5016161;28;20265;-56
2023/06/24 08:01:08;;;;;;;7.73;4.50;;;25.90;1.00;;;;;;5015969;28;20449;-56
2023/06/24 08:03:36;;;;;;;5.40;4.53;;;25.70;1.00;;;;;;5015872;28;20182;-56
2023/06/24 08:06:02;;;;;;;6.90;5.20;;;25.10;1.00;;;;;;5015691;28;20556;-57
2023/06/24 08:08:27;;;;;;;6.90;4.40;;;24.80;1.00;;;;;;5016046;28;20511;-57
2023/06/24 08:10:53;;;;;;;7.13;5.50;;;24.70;1.00;;;;;;5015881;28;20178;-56
2023/06/24 08:13:19;;;;;;;8.00;4.80;;;24.20;1.00;;;;;;5016010;28;20184;-56
2023/06/24 08:15:44;;;;;;;7.73;5.70;;;24.00;1.00;;;;;;5016481;28;20206;-57
2023/06/24 08:18:10;;;;;;;6.77;5.07;;;23.90;1.00;;;;;;5015519;28;20196;-57
2023/06/24 08:20:36;;;;;;;5.93;5.20;;;24.00;1.00;;;;;;5016028;28;20262;-56
2023/06/24 08:23:01;;;;;;;5.50;5.00;;;24.40;1.00;;;;;;5015544;28;20194;-56
2023/06/24 08:25:27;;;;;;;5.30;4.80;;;24.60;1.00;;;;;;5015743;28;20289;-56
2023/06/24 08:27:52;;;;;;;6.37;5.20;;;24.70;1.00;;;;;;5015541;28;20535;-56
2023/06/24 08:30:18;;;;;;;8.47;5.50;;;25.10;1.00;;;;;;5015729;28;20174;-56
2023/06/24 08:32:44;;;;;;;5.13;4.60;;;24.90;1.00;;;;;;5015471;28;20253;-56
2023/06/24 08:35:09;;;;;;;7.50;4.53;;;24.90;1.00;;;;;;5014279;28;20227;-56
2023/06/24 08:37:36;;;;;;;4.87;4.47;;;25.10;1.00;;;;;;5015559;28;20615;-56
2023/06/24 08:40:04;;;;;;;5.23;4.73;;;25.20;1.00;;;;;;5015738;28;20264;-56
2023/06/24 08:42:30;;;;;;;4.90;3.90;;;25.00;1.00;;;;;;5015480;28;20415;-56
2023/06/24 08:44:56;;;;;;;5.03;4.53;;;25.20;1.00;;;;;;5015249;28;20907;-56
2023/06/24 08:47:27;;;;;;;6.03;4.77;;;25.10;1.00;;;;;;5014481;28;20695;-56
2023/06/24 08:50:00;;;;;;;7.37;4.73;;;25.00;1.00;;;;;;5015538;28;20634;-56
2023/06/24 08:52:31;;;;;;;5.33;4.73;;;25.30;1.00;;;;;;5014667;28;20494;-56
2023/06/24 08:54:58;;;;;;;4.13;3.70;;;25.50;1.00;;;;;;5015341;28;20407;-56
2023/06/24 08:57:24;;;;;;;4.60;4.17;;;25.90;1.00;;;;;;5014934;28;20419;-57
2023/06/24 08:59:50;;;;;;;6.17;4.40;;;26.20;1.00;;;;;;5014646;28;20421;-57
2023/06/24 09:02:15;;;;;;;4.50;4.10;;;26.40;1.00;;;;;;5015003;28;20544;-57
2023/06/24 09:04:41;;;;;;;4.60;3.90;;;26.50;1.00;;;;;;5014905;28;20204;-57
2023/06/24 09:07:07;;;;;;;7.90;4.60;;;26.50;99.90;;;;;;5015035;28;20175;-57
2023/06/24 09:09:32;;;;;;;5.60;4.10;;;26.50;99.90;;;;;;5014864;28;20928;-57
2023/06/24 09:12:00;;;;;;;5.23;4.50;;;26.50;99.90;;;;;;5014946;28;20215;-56
2023/06/24 09:14:27;;;;;;;5.80;4.07;;;26.60;99.90;;;;;;5015039;28;20188;-57
2023/06/24 09:16:58;;;;;;;6.20;4.00;;;26.80;1.00;;;;;;5014617;28;20423;-57
2023/06/24 09:19:28;;;;;;;5.80;4.33;;;27.00;99.90;;;;;;5014530;28;20427;-57
2023/06/24 09:21:53;;;;;;;5.10;4.03;;;26.90;99.90;;;;;;5014400;28;20965;-57
2023/06/24 09:24:19;;;;;;;5.50;4.00;;;26.80;99.90;;;;;;5014184;28;20427;-57
2023/06/24 09:26:45;;;;;;;6.70;4.90;;;26.70;99.90;;;;;;5014466;28;20263;-57
2023/06/24 09:29:14;;;;;;;6.77;4.03;;;26.90;99.90;;;;;;5014284;28;20199;-57
2023/06/24 09:31:52;;;;;;;6.37;4.33;;;27.10;99.90;;;;;;5014692;28;20212;-57
2023/06/24 09:34:19;;;;;;;5.77;3.87;;;27.50;99.90;;;;;;5014402;28;20480;-57
2023/06/24 09:36:53;;;;;;;5.10;4.40;;;27.60;99.90;;;;;;5013936;28;20430;-57
2023/06/24 09:39:18;;;;;;;5.37;4.87;;;27.80;99.90;;;;;;5014365;28;20420;-58
2023/06/24 09:41:50;;;;;;;5.27;4.77;;;27.80;99.90;;;;;;5014183;28;20434;-57
2023/06/24 09:44:16;;;;;;;6.30;4.80;;;27.80;99.90;;;;;;5014301;28;20184;-57
2023/06/24 09:46:43;;;;;;;7.50;4.70;;;28.00;99.90;;;;;;5014053;28;20426;-57
2023/06/24 09:49:08;;;;;;;5.40;4.60;;;28.10;99.90;;;;;;5014119;28;20423;-58
2023/06/24 09:51:38;;;;;;;6.83;4.80;;;28.20;99.90;;;;;;5013888;28;20516;-58
2023/06/24 09:54:07;;;;;;;5.93;5.07;;;28.30;99.90;;;;;;5014257;28;20232;-57
2023/06/24 09:56:39;;;;;;;6.50;5.10;;;28.30;99.90;;;;;;5013917;28;20789;-57
2023/06/24 09:59:06;;;;;;;6.23;5.63;;;28.20;99.90;;;;;;5013900;28;20433;-57
2023/06/24 10:01:38;;;;;;;6.90;5.80;;;28.00;99.90;;;;;;5013821;28;20435;-57
2023/06/24 10:04:05;;;;;;;6.90;5.10;;;27.80;99.90;;;;;;5013955;28;20450;-57
2023/06/24 10:06:35;;;;;;;8.50;5.43;;;27.90;99.90;;;;;;5013743;28;20811;-57
2023/06/24 10:09:01;;;;;;;6.57;4.80;;;28.30;99.90;;;;;;5014082;28;20795;-57
2023/06/24 10:11:27;;;;;;;6.97;6.03;;;28.30;99.90;;;;;;5013726;28;20466;-57
2023/06/24 10:13:53;;;;;;;6.77;5.33;;;28.20;99.90;;;;;;5013379;28;20415;-57
2023/06/24 10:16:19;;;;;;;7.33;5.70;;;28.10;99.90;;;;;;5013731;28;20188;-58
2023/06/24 10:18:45;;;;;;;7.13;5.23;;;28.50;99.90;;;;;;5013825;28;20433;-57
2023/06/24 10:21:12;;;;;;;5.77;5.20;;;28.40;99.90;;;;;;5013199;28;20415;-57
2023/06/24 10:23:55;;;;;;;7.73;5.43;;;28.30;99.90;;;;;;5013575;28;20745;-58
2023/06/24 10:26:29;;;;;;;9.53;5.37;;;28.50;99.90;;;;;;5013708;28;20413;-58
2023/06/24 10:29:08;;;;;;;6.47;5.80;;;28.60;99.90;;;;;;5013825;28;20407;-58
2023/06/24 10:31:39;;;;;;;6.20;4.80;;;28.90;99.90;;;;;;5013199;28;20513;-57
2023/06/24 10:34:23;;;;;;;5.53;5.03;;;29.10;99.90;;;;;;5013578;28;20419;-58
2023/06/24 10:37:07;;;;;;;5.43;4.90;;;29.60;99.90;;;;;;5013370;28;20419;-58
2023/06/24 10:39:44;;;;;;;7.73;5.30;;;30.00;99.90;;;;;;5013207;28;20415;-58
2023/06/24 10:42:25;;;;;;;8.43;5.87;;;30.10;99.90;;;;;;5013520;28;20414;-59
2023/06/24 10:44:51;;;;;;;6.40;5.00;;;29.60;99.90;;;;;;5013023;28;20926;-58
2023/06/24 10:47:18;;;;;;;6.63;5.60;;;29.30;99.90;;;;;;5013076;28;20831;-59
2023/06/24 10:49:43;;;;;;;6.40;5.70;;;29.20;99.90;;;;;;5013531;28;20423;-58
2023/06/24 10:52:13;;;;;;;6.90;6.00;;;29.10;99.90;;;;;;5012741;28;20829;-58
2023/06/24 10:54:40;;;;;;;6.60;5.63;;;28.90;99.90;;;;;;5013234;28;20256;-58
2023/06/24 10:57:07;;;;;;;5.93;5.33;;;29.60;99.90;;;;;;5013048;28;20419;-58
2023/06/24 10:59:42;;;;;;;5.97;5.37;;;29.80;99.90;;;;;;5013354;28;20465;-58
2023/06/24 11:02:12;;;;;;;7.40;5.23;;;29.70;99.90;;;;;;5013169;28;20395;-58
2023/06/24 11:04:48;;;;;;;5.50;5.00;;;29.60;99.90;;;;;;5013468;28;20843;-58
2023/06/24 11:07:17;;;;;;;9.53;5.97;;;29.40;99.90;;;;;;5013310;28;20505;-58
2023/06/24 11:09:49;;;;;;;5.90;5.30;;;29.20;99.90;;;;;;5013399;28;20411;-57
2023/06/24 11:12:14;;;;;;;6.63;5.90;;;29.70;99.90;;;;;;5015946;28;20446;-57
2023/06/24 11:14:40;;;;;;;9.80;5.70;;;30.30;99.90;;;;;;5016502;28;20518;-57
2023/06/24 11:17:06;;;;;;;5.80;5.10;;;30.30;99.90;;;;;;5016715;28;20181;-58
2023/06/24 11:19:32;;;;;;;6.53;5.80;;;30.30;99.90;;;;;;5016599;28;20176;-57
2023/06/24 11:22:01;;;;;;;12.73;5.27;;;30.50;99.90;;;;;;5017115;28;20423;-58
2023/06/24 11:24:30;;;;;;;7.70;5.87;;;30.80;99.90;;;;;;5017205;28;20759;-58
2023/06/24 11:26:56;;;;;;;5.20;4.60;;;30.90;99.90;;;;;;5016921;28;20411;-58
2023/06/24 11:29:28;;;;;;;9.20;5.17;;;30.90;99.90;;;;;;5016917;28;20477;-58
2023/06/24 11:31:53;;;;;;;5.20;4.27;;;30.50;99.90;;;;;;5016290;28;20529;-58
2023/06/24 11:34:19;;;;;;;5.47;4.90;;;30.80;99.90;;;;;;5016475;28;20418;-58
2023/06/24 11:36:44;;;;;;;5.37;4.87;;;30.80;99.90;;;;;;5016396;28;20181;-58
2023/06/24 11:39:27;;;;;;;7.40;5.40;;;30.70;99.90;;;;;;5016411;28;20203;-57
2023/06/24 11:41:53;;;;;;;6.40;4.87;;;30.40;99.90;;;;;;5016437;28;20169;-58
2023/06/24 11:44:24;;;;;;;5.20;4.80;;;30.80;99.90;;;;;;5016453;28;20412;-58
2023/06/24 11:46:49;;;;;;;7.90;5.17;;;31.10;99.90;;;;;;5016346;28;20484;-57
2023/06/24 11:49:16;;;;;;;5.50;4.93;;;31.00;99.90;;;;;;5016537;28;20415;-57
2023/06/24 11:51:52;;;;;;;6.00;4.90;;;30.10;99.90;;;;;;5016033;28;20216;-58
2023/06/24 11:54:20;;;;;;;5.70;4.73;;;29.10;99.90;;;;;;5016232;28;20802;-57
2023/06/24 11:56:51;;;;;;;6.90;5.30;;;28.50;99.90;;;;;;5016089;28;20423;-57
2023/06/24 11:59:19;;;;;;;5.97;4.73;;;28.20;99.90;;;;;;5016314;28;20410;-56
2023/06/24 12:01:52;;;;;;;4.90;4.50;;;28.70;99.90;;;;;;5016237;28;20430;-57
2023/06/24 12:04:17;;;;;;;8.60;5.53;;;29.70;99.90;;;;;;5016549;28;20422;-57
2023/06/24 12:06:44;;;;;;;6.80;4.90;;;29.60;99.90;;;;;;5016105;28;20419;-57
2023/06/24 12:09:10;;;;;;;6.53;4.97;;;28.60;99.90;;;;;;5015722;28;20628;-56
2023/06/24 12:11:36;;;;;;;7.13;5.07;;;28.00;99.90;;;;;;5015595;28;20463;-56
2023/06/24 12:14:02;;;;;;;10.13;5.60;;;28.00;99.90;;;;;;5016122;28;20188;-56
2023/06/24 12:16:28;;;;;;;8.20;5.23;;;28.20;99.90;;;;;;5015743;28;20438;-56
2023/06/24 12:18:54;;;;;;;8.53;5.20;;;28.00;99.90;;;;;;5015563;28;20192;-55
2023/06/24 12:21:19;;;;;;;5.20;4.60;;;27.90;99.90;;;;;;5015935;28;20443;-56
2023/06/24 12:23:45;;;;;;;7.03;5.80;;;27.60;99.90;;;;;;5014661;28;20234;-55
2023/06/24 12:26:11;;;;;;;8.03;4.93;;;27.30;99.90;;;;;;5015745;28;20629;-56
2023/06/24 12:28:37;;;;;;;6.97;4.90;;;28.00;99.90;;;;;;5015267;28;20195;-55
2023/06/24 12:31:03;;;;;;;5.50;4.90;;;28.50;99.90;;;;;;5015896;28;20415;-56
2023/06/24 12:33:28;;;;;;;7.83;5.27;;;28.50;99.90;;;;;;5015509;28;20550;-56
2023/06/24 12:35:54;;;;;;;5.10;4.60;;;28.70;99.90;;;;;;5015580;28;20176;-55
2023/06/24 12:38:20;;;;;;;5.77;5.17;;;29.40;99.90;;;;;;5015288;28;20180;-55
2023/06/24 12:40:45;;;;;;;5.33;4.93;;;29.90;99.90;;;;;;5015299;28;20185;-56
2023/06/24 12:43:11;;;;;;;6.57;5.40;;;29.50;99.90;;;;;;5015458;28;20192;-56